sensor_id;sensor_type;location;lat;lon;timestamp;temperature;humidity
22925;DHT22;11628;51.072;3.712;2022-09-09T00:01:51;15.90;99.90
22925;DHT22;11628;51.072;3.712;2022-09-09T00:10:36;15.90;99.90
22925;DHT22;11628;51.072;3.712;2022-09-09T00:13:13;15.90;99.90
22925;DHT22;11628;51.072;3.712;2022-09-09T00:15:59;15.80;99.90
22925;DHT22;11628;51.072;3.712;2022-09-09T00:21:15;15.90;99.90
22925;DHT22;11628;51.072;3.712;2022-09-09T00:24:00;15.90;99.90
22925;DHT22;11628;51.072;3.712;2022-09-09T00:26:40;15.90;99.90
22925;DHT22;11628;51.072;3.712;2022-09-09T00:31:34;15.90;99.90
22925;DHT22;11628;51.072;3.712;2022-09-09T00:34:09;15.90;99.90
22925;DHT22;11628;51.072;3.712;2022-09-09T00:36:38;15.90;99.90
22925;DHT22;11628;51.072;3.712;2022-09-09T00:39:05;15.90;99.90
22925;DHT22;11628;51.072;3.712;2022-09-09T00:44:34;15.90;99.90
22925;DHT22;11628;51.072;3.712;2022-09-09T00:50:05;15.90;99.90
22925;DHT22;11628;51.072;3.712;2022-09-09T00:52:44;15.90;99.90
22925;DHT22;11628;51.072;3.712;2022-09-09T00:55:37;16.00;99.90
22925;DHT22;11628;51.072;3.712;2022-09-09T00:58:07;16.00;99.90
22925;DHT22;11628;51.072;3.712;2022-09-09T01:00:44;16.00;99.90
22925;DHT22;11628;51.072;3.712;2022-09-09T01:10:58;16.10;99.90
22925;DHT22;11628;51.072;3.712;2022-09-09T01:13:29;16.10;99.90
22925;DHT22;11628;51.072;3.712;2022-09-09T01:15:58;16.10;99.90
22925;DHT22;11628;51.072;3.712;2022-09-09T01:18:28;16.00;99.90
22925;DHT22;11628;51.072;3.712;2022-09-09T01:23:47;15.90;99.90
22925;DHT22;11628;51.072;3.712;2022-09-09T01:26:28;15.90;99.90
22925;DHT22;11628;51.072;3.712;2022-09-09T01:28:55;15.90;99.90
22925;DHT22;11628;51.072;3.712;2022-09-09T01:31:51;15.80;99.90
22925;DHT22;11628;51.072;3.712;2022-09-09T01:34:17;15.80;99.90
22925;DHT22;11628;51.072;3.712;2022-09-09T01:36:46;15.80;99.90
22925;DHT22;11628;51.072;3.712;2022-09-09T01:39:13;15.80;99.90
22925;DHT22;11628;51.072;3.712;2022-09-09T01:41:39;15.80;99.90
22925;DHT22;11628;51.072;3.712;2022-09-09T01:44:07;15.90;99.90
22925;DHT22;11628;51.072;3.712;2022-09-09T01:46:33;15.80;99.90
22925;DHT22;11628;51.072;3.712;2022-09-09T01:49:01;15.80;99.90
22925;DHT22;11628;51.072;3.712;2022-09-09T01:51:27;15.80;99.90
22925;DHT22;11628;51.072;3.712;2022-09-09T01:53:53;15.70;99.90
22925;DHT22;11628;51.072;3.712;2022-09-09T01:59:24;15.60;99.90
22925;DHT22;11628;51.072;3.712;2022-09-09T02:02:05;15.60;99.90
22925;DHT22;11628;51.072;3.712;2022-09-09T02:04:43;15.50;99.90
22925;DHT22;11628;51.072;3.712;2022-09-09T02:09:57;15.50;99.90
22925;DHT22;11628;51.072;3.712;2022-09-09T02:12:25;15.50;99.90
22925;DHT22;11628;51.072;3.712;2022-09-09T02:14:56;15.50;99.90
22925;DHT22;11628;51.072;3.712;2022-09-09T02:17:33;15.50;99.90
22925;DHT22;11628;51.072;3.712;2022-09-09T02:20:12;15.50;99.90
22925;DHT22;11628;51.072;3.712;2022-09-09T02:22:40;15.50;99.90
22925;DHT22;11628;51.072;3.712;2022-09-09T02:25:12;15.50;99.90
22925;DHT22;11628;51.072;3.712;2022-09-09T02:27:41;15.50;99.90
22925;DHT22;11628;51.072;3.712;2022-09-09T02:30:09;15.60;99.90
22925;DHT22;11628;51.072;3.712;2022-09-09T02:32:36;15.60;99.90
22925;DHT22;11628;51.072;3.712;2022-09-09T02:35:08;15.60;99.90
22925;DHT22;11628;51.072;3.712;2022-09-09T02:37:39;15.60;99.90
22925;DHT22;11628;51.072;3.712;2022-09-09T02:40:07;15.60;99.90
22925;DHT22;11628;51.072;3.712;2022-09-09T02:42:41;15.60;99.90
22925;DHT22;11628;51.072;3.712;2022-09-09T02:45:07;15.60;99.90
22925;DHT22;11628;51.072;3.712;2022-09-09T02:47:35;15.60;99.90
22925;DHT22;11628;51.072;3.712;2022-09-09T02:53:39;15.60;99.90
22925;DHT22;11628;51.072;3.712;2022-09-09T02:56:19;15.60;99.90
22925;DHT22;11628;51.072;3.712;2022-09-09T02:58:20;15.60;99.90
22925;DHT22;11628;51.072;3.712;2022-09-09T03:00:48;15.60;99.90
22925;DHT22;11628;51.072;3.712;2022-09-09T03:03:15;15.60;99.90
22925;DHT22;11628;51.072;3.712;2022-09-09T03:05:42;15.60;99.90
22925;DHT22;11628;51.072;3.712;2022-09-09T03:08:07;15.60;99.90
22925;DHT22;11628;51.072;3.712;2022-09-09T03:10:33;15.60;99.90
22925;DHT22;11628;51.072;3.712;2022-09-09T03:13:00;15.60;99.90
22925;DHT22;11628;51.072;3.712;2022-09-09T03:15:26;15.60;99.90
22925;DHT22;11628;51.072;3.712;2022-09-09T03:17:55;15.60;99.90
22925;DHT22;11628;51.072;3.712;2022-09-09T03:20:26;15.60;99.90
22925;DHT22;11628;51.072;3.712;2022-09-09T03:22:53;15.60;99.90
22925;DHT22;11628;51.072;3.712;2022-09-09T03:25:20;15.60;99.90
22925;DHT22;11628;51.072;3.712;2022-09-09T03:27:45;15.60;99.90
22925;DHT22;11628;51.072;3.712;2022-09-09T03:30:11;15.60;99.90
22925;DHT22;11628;51.072;3.712;2022-09-09T03:32:37;15.60;99.90
22925;DHT22;11628;51.072;3.712;2022-09-09T03:35:03;15.70;99.90
22925;DHT22;11628;51.072;3.712;2022-09-09T03:37:29;15.70;99.90
22925;DHT22;11628;51.072;3.712;2022-09-09T03:39:55;15.70;99.90
22925;DHT22;11628;51.072;3.712;2022-09-09T03:42:21;15.70;99.90
22925;DHT22;11628;51.072;3.712;2022-09-09T03:44:48;15.80;99.90
22925;DHT22;11628;51.072;3.712;2022-09-09T03:47:18;15.70;99.90
22925;DHT22;11628;51.072;3.712;2022-09-09T03:49:45;15.80;99.90
22925;DHT22;11628;51.072;3.712;2022-09-09T03:52:11;15.80;99.90
22925;DHT22;11628;51.072;3.712;2022-09-09T03:54:37;15.80;99.90
22925;DHT22;11628;51.072;3.712;2022-09-09T03:57:03;15.80;99.90
22925;DHT22;11628;51.072;3.712;2022-09-09T03:59:29;15.80;99.90
22925;DHT22;11628;51.072;3.712;2022-09-09T04:01:55;15.70;99.90
22925;DHT22;11628;51.072;3.712;2022-09-09T04:04:22;15.80;99.90
22925;DHT22;11628;51.072;3.712;2022-09-09T04:06:48;15.70;99.90
22925;DHT22;11628;51.072;3.712;2022-09-09T04:09:14;15.70;99.90
22925;DHT22;11628;51.072;3.712;2022-09-09T04:11:40;15.70;99.90
22925;DHT22;11628;51.072;3.712;2022-09-09T04:14:06;15.70;99.90
22925;DHT22;11628;51.072;3.712;2022-09-09T04:16:33;15.60;99.90
22925;DHT22;11628;51.072;3.712;2022-09-09T04:18:59;15.60;99.90
22925;DHT22;11628;51.072;3.712;2022-09-09T04:21:26;15.70;99.90
22925;DHT22;11628;51.072;3.712;2022-09-09T04:23:51;15.60;99.90
22925;DHT22;11628;51.072;3.712;2022-09-09T04:26:18;15.70;99.90
22925;DHT22;11628;51.072;3.712;2022-09-09T04:28:44;15.70;99.90
22925;DHT22;11628;51.072;3.712;2022-09-09T04:31:20;15.70;99.90
22925;DHT22;11628;51.072;3.712;2022-09-09T04:33:48;15.70;99.90
22925;DHT22;11628;51.072;3.712;2022-09-09T04:36:15;15.70;99.90
22925;DHT22;11628;51.072;3.712;2022-09-09T04:38:41;15.70;99.90
22925;DHT22;11628;51.072;3.712;2022-09-09T04:41:07;15.70;99.90
22925;DHT22;11628;51.072;3.712;2022-09-09T04:43:33;15.70;99.90
22925;DHT22;11628;51.072;3.712;2022-09-09T04:45:59;15.70;99.90
22925;DHT22;11628;51.072;3.712;2022-09-09T04:48:25;15.70;99.90
22925;DHT22;11628;51.072;3.712;2022-09-09T04:51:03;15.70;99.90
22925;DHT22;11628;51.072;3.712;2022-09-09T04:53:30;15.70;99.90
22925;DHT22;11628;51.072;3.712;2022-09-09T04:56:12;15.70;99.90
22925;DHT22;11628;51.072;3.712;2022-09-09T04:58:38;15.70;99.90
22925;DHT22;11628;51.072;3.712;2022-09-09T05:01:10;15.70;99.90
22925;DHT22;11628;51.072;3.712;2022-09-09T05:03:36;15.70;99.90
22925;DHT22;11628;51.072;3.712;2022-09-09T05:06:04;15.70;99.90
22925;DHT22;11628;51.072;3.712;2022-09-09T05:08:30;15.70;99.90
22925;DHT22;11628;51.072;3.712;2022-09-09T05:10:56;15.70;99.90
22925;DHT22;11628;51.072;3.712;2022-09-09T05:13:23;15.70;99.90
22925;DHT22;11628;51.072;3.712;2022-09-09T05:15:53;15.70;99.90
22925;DHT22;11628;51.072;3.712;2022-09-09T05:18:19;15.70;99.90
22925;DHT22;11628;51.072;3.712;2022-09-09T05:20:45;15.70;99.90
22925;DHT22;11628;51.072;3.712;2022-09-09T05:23:10;15.60;99.90
22925;DHT22;11628;51.072;3.712;2022-09-09T05:25:39;15.60;99.90
22925;DHT22;11628;51.072;3.712;2022-09-09T05:28:05;15.40;99.90
22925;DHT22;11628;51.072;3.712;2022-09-09T05:30:33;15.20;99.90
22925;DHT22;11628;51.072;3.712;2022-09-09T05:33:02;15.10;99.90
22925;DHT22;11628;51.072;3.712;2022-09-09T05:35:28;15.10;99.90
22925;DHT22;11628;51.072;3.712;2022-09-09T05:37:53;15.00;99.90
22925;DHT22;11628;51.072;3.712;2022-09-09T05:40:19;14.90;99.90
22925;DHT22;11628;51.072;3.712;2022-09-09T05:42:46;14.90;99.90
22925;DHT22;11628;51.072;3.712;2022-09-09T05:45:12;15.00;99.90
22925;DHT22;11628;51.072;3.712;2022-09-09T05:47:38;15.00;99.90
22925;DHT22;11628;51.072;3.712;2022-09-09T05:50:04;14.90;99.90
22925;DHT22;11628;51.072;3.712;2022-09-09T05:52:30;15.00;99.90
22925;DHT22;11628;51.072;3.712;2022-09-09T05:54:55;14.90;99.90
22925;DHT22;11628;51.072;3.712;2022-09-09T05:57:22;14.90;99.90
22925;DHT22;11628;51.072;3.712;2022-09-09T05:59:48;15.00;99.90
22925;DHT22;11628;51.072;3.712;2022-09-09T06:02:14;15.00;99.90
22925;DHT22;11628;51.072;3.712;2022-09-09T06:04:40;15.00;99.90
22925;DHT22;11628;51.072;3.712;2022-09-09T06:07:05;15.00;99.90
22925;DHT22;11628;51.072;3.712;2022-09-09T06:09:31;14.90;99.90
22925;DHT22;11628;51.072;3.712;2022-09-09T06:11:57;14.90;99.90
22925;DHT22;11628;51.072;3.712;2022-09-09T06:14:24;14.90;99.90
22925;DHT22;11628;51.072;3.712;2022-09-09T06:16:51;14.80;99.90
22925;DHT22;11628;51.072;3.712;2022-09-09T06:19:17;14.80;99.90
22925;DHT22;11628;51.072;3.712;2022-09-09T06:21:43;14.80;99.90
22925;DHT22;11628;51.072;3.712;2022-09-09T06:24:10;14.80;99.90
22925;DHT22;11628;51.072;3.712;2022-09-09T06:26:39;14.80;99.90
22925;DHT22;11628;51.072;3.712;2022-09-09T06:29:07;14.80;99.90
22925;DHT22;11628;51.072;3.712;2022-09-09T06:31:34;14.80;99.90
22925;DHT22;11628;51.072;3.712;2022-09-09T06:34:04;14.80;99.90
22925;DHT22;11628;51.072;3.712;2022-09-09T06:36:32;14.90;99.90
22925;DHT22;11628;51.072;3.712;2022-09-09T06:38:59;14.90;99.90
22925;DHT22;11628;51.072;3.712;2022-09-09T06:41:26;14.90;99.90
22925;DHT22;11628;51.072;3.712;2022-09-09T06:43:53;14.90;99.90
22925;DHT22;11628;51.072;3.712;2022-09-09T06:46:22;15.00;99.90
22925;DHT22;11628;51.072;3.712;2022-09-09T06:48:49;15.00;99.90
22925;DHT22;11628;51.072;3.712;2022-09-09T06:51:16;15.10;99.90
22925;DHT22;11628;51.072;3.712;2022-09-09T06:53:44;15.10;99.90
22925;DHT22;11628;51.072;3.712;2022-09-09T06:58:44;15.20;99.90
22925;DHT22;11628;51.072;3.712;2022-09-09T07:01:14;15.20;99.90
22925;DHT22;11628;51.072;3.712;2022-09-09T07:03:41;15.20;99.90
22925;DHT22;11628;51.072;3.712;2022-09-09T07:06:08;15.30;99.90
22925;DHT22;11628;51.072;3.712;2022-09-09T07:08:39;15.20;99.90
22925;DHT22;11628;51.072;3.712;2022-09-09T07:11:07;15.30;99.90
22925;DHT22;11628;51.072;3.712;2022-09-09T07:13:34;15.40;99.90
22925;DHT22;11628;51.072;3.712;2022-09-09T07:16:09;15.50;99.90
22925;DHT22;11628;51.072;3.712;2022-09-09T07:18:35;15.50;99.90
22925;DHT22;11628;51.072;3.712;2022-09-09T07:21:02;15.50;99.90
22925;DHT22;11628;51.072;3.712;2022-09-09T07:23:29;15.50;99.90
22925;DHT22;11628;51.072;3.712;2022-09-09T07:25:58;15.50;99.90
22925;DHT22;11628;51.072;3.712;2022-09-09T07:28:25;15.60;99.90
22925;DHT22;11628;51.072;3.712;2022-09-09T07:30:59;15.70;99.90
22925;DHT22;11628;51.072;3.712;2022-09-09T07:33:26;15.80;99.90
22925;DHT22;11628;51.072;3.712;2022-09-09T07:35:53;15.90;99.90
22925;DHT22;11628;51.072;3.712;2022-09-09T07:38:19;16.00;99.90
22925;DHT22;11628;51.072;3.712;2022-09-09T07:40:46;16.00;99.90
22925;DHT22;11628;51.072;3.712;2022-09-09T07:43:12;16.00;99.90
22925;DHT22;11628;51.072;3.712;2022-09-09T07:45:38;16.10;99.90
22925;DHT22;11628;51.072;3.712;2022-09-09T07:48:05;16.10;99.90
22925;DHT22;11628;51.072;3.712;2022-09-09T07:50:31;16.00;99.90
22925;DHT22;11628;51.072;3.712;2022-09-09T07:52:58;15.90;99.90
22925;DHT22;11628;51.072;3.712;2022-09-09T07:55:24;15.80;99.90
22925;DHT22;11628;51.072;3.712;2022-09-09T07:57:52;15.90;99.90
22925;DHT22;11628;51.072;3.712;2022-09-09T08:00:18;15.80;99.90
22925;DHT22;11628;51.072;3.712;2022-09-09T08:02:45;15.70;99.90
22925;DHT22;11628;51.072;3.712;2022-09-09T08:05:12;15.60;99.90
22925;DHT22;11628;51.072;3.712;2022-09-09T08:07:38;15.60;99.90
22925;DHT22;11628;51.072;3.712;2022-09-09T08:10:04;15.50;99.90
22925;DHT22;11628;51.072;3.712;2022-09-09T08:12:31;15.50;99.90
22925;DHT22;11628;51.072;3.712;2022-09-09T08:14:57;15.50;99.90
22925;DHT22;11628;51.072;3.712;2022-09-09T08:17:23;15.50;99.90
22925;DHT22;11628;51.072;3.712;2022-09-09T08:19:49;15.40;99.90
22925;DHT22;11628;51.072;3.712;2022-09-09T08:22:15;15.40;99.90
22925;DHT22;11628;51.072;3.712;2022-09-09T08:24:40;15.40;99.90
22925;DHT22;11628;51.072;3.712;2022-09-09T08:27:06;15.40;99.90
22925;DHT22;11628;51.072;3.712;2022-09-09T08:29:32;15.40;99.90
22925;DHT22;11628;51.072;3.712;2022-09-09T08:31:58;15.40;99.90
22925;DHT22;11628;51.072;3.712;2022-09-09T08:34:25;15.40;99.90
22925;DHT22;11628;51.072;3.712;2022-09-09T08:36:52;15.50;99.90
22925;DHT22;11628;51.072;3.712;2022-09-09T08:39:20;15.40;99.90
22925;DHT22;11628;51.072;3.712;2022-09-09T08:50:30;15.50;99.90
22925;DHT22;11628;51.072;3.712;2022-09-09T08:53:14;15.60;99.90
22925;DHT22;11628;51.072;3.712;2022-09-09T08:55:48;15.70;99.90
22925;DHT22;11628;51.072;3.712;2022-09-09T09:09:21;15.90;99.90
22925;DHT22;11628;51.072;3.712;2022-09-09T09:11:55;15.90;99.90
22925;DHT22;11628;51.072;3.712;2022-09-09T09:14:28;15.90;99.90
22925;DHT22;11628;51.072;3.712;2022-09-09T09:16:59;15.90;99.90
22925;DHT22;11628;51.072;3.712;2022-09-09T09:19:27;16.00;99.90
22925;DHT22;11628;51.072;3.712;2022-09-09T09:22:06;16.10;99.90
22925;DHT22;11628;51.072;3.712;2022-09-09T09:27:33;16.50;99.90
22925;DHT22;11628;51.072;3.712;2022-09-09T09:30:23;16.60;99.90
22925;DHT22;11628;51.072;3.712;2022-09-09T09:35:39;16.70;99.90
22925;DHT22;11628;51.072;3.712;2022-09-09T09:38:24;16.80;99.90
22925;DHT22;11628;51.072;3.712;2022-09-09T09:40:55;17.00;99.90
22925;DHT22;11628;51.072;3.712;2022-09-09T09:45:52;17.00;99.90
22925;DHT22;11628;51.072;3.712;2022-09-09T09:48:17;17.00;99.90
22925;DHT22;11628;51.072;3.712;2022-09-09T09:51:06;17.00;99.90
22925;DHT22;11628;51.072;3.712;2022-09-09T09:53:35;16.90;99.90
22925;DHT22;11628;51.072;3.712;2022-09-09T09:56:08;16.90;99.90
22925;DHT22;11628;51.072;3.712;2022-09-09T10:01:04;17.00;99.90
22925;DHT22;11628;51.072;3.712;2022-09-09T10:03:32;17.10;99.90
22925;DHT22;11628;51.072;3.712;2022-09-09T10:05:58;17.10;99.90
22925;DHT22;11628;51.072;3.712;2022-09-09T10:08:25;17.10;99.90
22925;DHT22;11628;51.072;3.712;2022-09-09T10:19:14;17.20;99.90
22925;DHT22;11628;51.072;3.712;2022-09-09T10:27:29;18.00;99.90
22925;DHT22;11628;51.072;3.712;2022-09-09T10:38:42;17.70;99.90
22925;DHT22;11628;51.072;3.712;2022-09-09T10:44:26;18.10;99.90
22925;DHT22;11628;51.072;3.712;2022-09-09T10:55:44;18.60;99.90
22925;DHT22;11628;51.072;3.712;2022-09-09T10:58:22;18.40;99.90
22925;DHT22;11628;51.072;3.712;2022-09-09T11:00:56;18.30;99.90
22925;DHT22;11628;51.072;3.712;2022-09-09T11:03:29;18.40;99.90
22925;DHT22;11628;51.072;3.712;2022-09-09T11:08:32;19.20;99.90
22925;DHT22;11628;51.072;3.712;2022-09-09T11:11:03;19.40;99.90
22925;DHT22;11628;51.072;3.712;2022-09-09T11:16:29;19.80;99.90
22925;DHT22;11628;51.072;3.712;2022-09-09T11:19:04;20.40;99.90
22925;DHT22;11628;51.072;3.712;2022-09-09T11:21:46;21.00;99.90
22925;DHT22;11628;51.072;3.712;2022-09-09T11:26:57;21.60;99.90
22925;DHT22;11628;51.072;3.712;2022-09-09T11:34:42;20.70;99.90
22925;DHT22;11628;51.072;3.712;2022-09-09T11:42:26;21.00;99.90
22925;DHT22;11628;51.072;3.712;2022-09-09T11:44:52;21.10;99.90
22925;DHT22;11628;51.072;3.712;2022-09-09T11:47:27;21.10;99.90
22925;DHT22;11628;51.072;3.712;2022-09-09T11:52:48;20.70;99.90
22925;DHT22;11628;51.072;3.712;2022-09-09T11:55:44;20.70;99.90
22925;DHT22;11628;51.072;3.712;2022-09-09T12:00:40;20.30;99.90
22925;DHT22;11628;51.072;3.712;2022-09-09T12:03:40;20.40;99.90
22925;DHT22;11628;51.072;3.712;2022-09-09T12:06:15;20.40;99.90
22925;DHT22;11628;51.072;3.712;2022-09-09T12:08:45;21.60;99.90
22925;DHT22;11628;51.072;3.712;2022-09-09T12:11:11;22.40;99.90
22925;DHT22;11628;51.072;3.712;2022-09-09T12:13:37;22.70;99.90
22925;DHT22;11628;51.072;3.712;2022-09-09T12:16:03;22.30;99.90
22925;DHT22;11628;51.072;3.712;2022-09-09T12:18:35;22.00;99.90
22925;DHT22;11628;51.072;3.712;2022-09-09T12:21:30;21.70;99.90
22925;DHT22;11628;51.072;3.712;2022-09-09T12:29:21;23.10;99.90
22925;DHT22;11628;51.072;3.712;2022-09-09T12:32:10;22.70;99.90
22925;DHT22;11628;51.072;3.712;2022-09-09T12:34:55;22.70;99.90
22925;DHT22;11628;51.072;3.712;2022-09-09T12:39:58;21.80;99.90
22925;DHT22;11628;51.072;3.712;2022-09-09T12:42:25;21.30;99.90
22925;DHT22;11628;51.072;3.712;2022-09-09T12:45:02;21.10;99.90
22925;DHT22;11628;51.072;3.712;2022-09-09T12:47:40;21.70;99.90
22925;DHT22;11628;51.072;3.712;2022-09-09T12:50:24;22.40;99.90
22925;DHT22;11628;51.072;3.712;2022-09-09T12:52:56;23.30;99.90
22925;DHT22;11628;51.072;3.712;2022-09-09T12:55:32;23.10;99.90
22925;DHT22;11628;51.072;3.712;2022-09-09T12:58:00;23.40;99.90
22925;DHT22;11628;51.072;3.712;2022-09-09T13:00:30;23.00;99.90
22925;DHT22;11628;51.072;3.712;2022-09-09T13:03:01;22.80;99.90
22925;DHT22;11628;51.072;3.712;2022-09-09T13:05:35;22.80;99.90
22925;DHT22;11628;51.072;3.712;2022-09-09T13:08:06;22.70;99.90
22925;DHT22;11628;51.072;3.712;2022-09-09T13:10:36;22.40;99.90
22925;DHT22;11628;51.072;3.712;2022-09-09T13:13:11;21.70;99.90
22925;DHT22;11628;51.072;3.712;2022-09-09T13:15:38;21.00;99.90
22925;DHT22;11628;51.072;3.712;2022-09-09T13:18:10;20.70;99.90
22925;DHT22;11628;51.072;3.712;2022-09-09T13:20:37;20.90;99.90
22925;DHT22;11628;51.072;3.712;2022-09-09T13:23:03;20.70;99.90
22925;DHT22;11628;51.072;3.712;2022-09-09T13:25:29;21.10;99.90
22925;DHT22;11628;51.072;3.712;2022-09-09T13:28:03;21.10;99.90
22925;DHT22;11628;51.072;3.712;2022-09-09T13:30:30;21.40;99.90
22925;DHT22;11628;51.072;3.712;2022-09-09T13:33:19;22.30;99.90
22925;DHT22;11628;51.072;3.712;2022-09-09T13:35:52;23.90;99.90
22925;DHT22;11628;51.072;3.712;2022-09-09T13:38:19;23.70;99.90
22925;DHT22;11628;51.072;3.712;2022-09-09T13:43:22;24.70;99.90
22925;DHT22;11628;51.072;3.712;2022-09-09T13:45:56;25.20;99.90
22925;DHT22;11628;51.072;3.712;2022-09-09T13:48:23;25.60;99.90
22925;DHT22;11628;51.072;3.712;2022-09-09T13:50:58;25.30;99.90
22925;DHT22;11628;51.072;3.712;2022-09-09T13:53:24;25.10;99.90
22925;DHT22;11628;51.072;3.712;2022-09-09T13:55:50;25.10;99.90
22925;DHT22;11628;51.072;3.712;2022-09-09T13:58:17;25.00;99.90
22925;DHT22;11628;51.072;3.712;2022-09-09T14:00:45;24.70;99.90
22925;DHT22;11628;51.072;3.712;2022-09-09T14:03:10;23.90;99.90
22925;DHT22;11628;51.072;3.712;2022-09-09T14:05:36;22.90;99.90
22925;DHT22;11628;51.072;3.712;2022-09-09T14:08:06;22.90;99.90
22925;DHT22;11628;51.072;3.712;2022-09-09T14:10:33;23.20;99.90
22925;DHT22;11628;51.072;3.712;2022-09-09T14:13:01;23.30;99.90
22925;DHT22;11628;51.072;3.712;2022-09-09T14:15:26;23.60;99.90
22925;DHT22;11628;51.072;3.712;2022-09-09T14:17:52;23.70;99.90
22925;DHT22;11628;51.072;3.712;2022-09-09T14:20:19;24.60;99.90
22925;DHT22;11628;51.072;3.712;2022-09-09T14:22:45;24.50;99.90
22925;DHT22;11628;51.072;3.712;2022-09-09T14:25:12;24.70;99.90
22925;DHT22;11628;51.072;3.712;2022-09-09T14:27:41;25.00;99.90
22925;DHT22;11628;51.072;3.712;2022-09-09T14:30:08;24.90;99.90
22925;DHT22;11628;51.072;3.712;2022-09-09T14:32:34;25.20;99.90
22925;DHT22;11628;51.072;3.712;2022-09-09T14:35:00;26.70;99.90
22925;DHT22;11628;51.072;3.712;2022-09-09T14:37:27;28.50;99.90
22925;DHT22;11628;51.072;3.712;2022-09-09T14:39:52;28.60;99.90
22925;DHT22;11628;51.072;3.712;2022-09-09T14:42:20;29.50;99.90
22925;DHT22;11628;51.072;3.712;2022-09-09T14:44:47;28.40;99.90
22925;DHT22;11628;51.072;3.712;2022-09-09T14:47:13;27.40;99.90
22925;DHT22;11628;51.072;3.712;2022-09-09T14:49:39;27.30;99.90
22925;DHT22;11628;51.072;3.712;2022-09-09T14:52:04;27.10;99.90
22925;DHT22;11628;51.072;3.712;2022-09-09T14:54:31;26.60;99.90
22925;DHT22;11628;51.072;3.712;2022-09-09T14:56:57;26.10;99.90
22925;DHT22;11628;51.072;3.712;2022-09-09T14:59:23;25.80;99.90
22925;DHT22;11628;51.072;3.712;2022-09-09T15:01:49;25.70;99.90
22925;DHT22;11628;51.072;3.712;2022-09-09T15:04:15;25.80;99.90
22925;DHT22;11628;51.072;3.712;2022-09-09T15:06:42;25.90;99.90
22925;DHT22;11628;51.072;3.712;2022-09-09T15:09:10;25.70;99.90
22925;DHT22;11628;51.072;3.712;2022-09-09T15:11:37;25.30;99.90
22925;DHT22;11628;51.072;3.712;2022-09-09T15:14:03;25.10;99.90
22925;DHT22;11628;51.072;3.712;2022-09-09T15:16:29;25.00;99.90
22925;DHT22;11628;51.072;3.712;2022-09-09T15:18:57;25.20;99.90
22925;DHT22;11628;51.072;3.712;2022-09-09T15:21:27;25.40;99.90
22925;DHT22;11628;51.072;3.712;2022-09-09T15:23:53;25.40;99.90
22925;DHT22;11628;51.072;3.712;2022-09-09T15:26:19;25.20;99.90
22925;DHT22;11628;51.072;3.712;2022-09-09T15:28:45;25.20;99.90
22925;DHT22;11628;51.072;3.712;2022-09-09T15:31:21;25.10;99.90
22925;DHT22;11628;51.072;3.712;2022-09-09T15:33:54;25.00;99.90
22925;DHT22;11628;51.072;3.712;2022-09-09T15:36:29;24.90;99.90
22925;DHT22;11628;51.072;3.712;2022-09-09T15:38:55;24.60;99.90
22925;DHT22;11628;51.072;3.712;2022-09-09T15:41:22;24.50;99.90
22925;DHT22;11628;51.072;3.712;2022-09-09T15:43:50;24.30;99.90
22925;DHT22;11628;51.072;3.712;2022-09-09T15:46:24;23.90;99.90
22925;DHT22;11628;51.072;3.712;2022-09-09T15:48:50;23.60;99.90
22925;DHT22;11628;51.072;3.712;2022-09-09T15:51:16;23.50;99.90
22925;DHT22;11628;51.072;3.712;2022-09-09T15:53:42;23.40;99.90
22925;DHT22;11628;51.072;3.712;2022-09-09T15:56:08;23.40;99.90
22925;DHT22;11628;51.072;3.712;2022-09-09T15:58:35;23.30;99.90
22925;DHT22;11628;51.072;3.712;2022-09-09T16:01:08;23.30;99.90
22925;DHT22;11628;51.072;3.712;2022-09-09T16:03:35;23.90;99.90
22925;DHT22;11628;51.072;3.712;2022-09-09T16:06:03;24.40;99.90
22925;DHT22;11628;51.072;3.712;2022-09-09T16:08:37;24.70;99.90
22925;DHT22;11628;51.072;3.712;2022-09-09T16:11:15;24.40;99.90
22925;DHT22;11628;51.072;3.712;2022-09-09T16:13:43;24.30;99.90
22925;DHT22;11628;51.072;3.712;2022-09-09T16:16:10;24.30;99.90
22925;DHT22;11628;51.072;3.712;2022-09-09T16:18:41;24.10;99.90
22925;DHT22;11628;51.072;3.712;2022-09-09T16:21:13;24.60;99.90
22925;DHT22;11628;51.072;3.712;2022-09-09T16:23:39;24.70;99.90
22925;DHT22;11628;51.072;3.712;2022-09-09T16:26:05;24.50;99.90
22925;DHT22;11628;51.072;3.712;2022-09-09T16:28:31;24.20;99.90
22925;DHT22;11628;51.072;3.712;2022-09-09T16:30:57;24.40;99.90
22925;DHT22;11628;51.072;3.712;2022-09-09T16:33:24;24.40;99.90
22925;DHT22;11628;51.072;3.712;2022-09-09T16:35:51;24.00;99.90
22925;DHT22;11628;51.072;3.712;2022-09-09T16:38:17;24.20;99.90
22925;DHT22;11628;51.072;3.712;2022-09-09T16:40:42;24.40;99.90
22925;DHT22;11628;51.072;3.712;2022-09-09T16:43:08;24.40;99.90
22925;DHT22;11628;51.072;3.712;2022-09-09T16:45:44;24.40;99.90
22925;DHT22;11628;51.072;3.712;2022-09-09T16:48:10;24.10;99.90
22925;DHT22;11628;51.072;3.712;2022-09-09T16:50:36;23.70;99.90
22925;DHT22;11628;51.072;3.712;2022-09-09T16:53:02;23.50;99.90
22925;DHT22;11628;51.072;3.712;2022-09-09T16:55:29;23.30;99.90
22925;DHT22;11628;51.072;3.712;2022-09-09T16:57:55;23.10;99.90
22925;DHT22;11628;51.072;3.712;2022-09-09T17:00:21;22.80;99.90
22925;DHT22;11628;51.072;3.712;2022-09-09T17:02:48;22.50;99.90
22925;DHT22;11628;51.072;3.712;2022-09-09T17:05:14;22.30;99.90
22925;DHT22;11628;51.072;3.712;2022-09-09T17:07:40;22.30;99.90
22925;DHT22;11628;51.072;3.712;2022-09-09T17:10:06;22.30;99.90
22925;DHT22;11628;51.072;3.712;2022-09-09T17:12:32;21.70;99.90
22925;DHT22;11628;51.072;3.712;2022-09-09T17:14:58;20.50;99.90
22925;DHT22;11628;51.072;3.712;2022-09-09T17:17:26;19.90;99.90
22925;DHT22;11628;51.072;3.712;2022-09-09T17:19:52;19.30;99.90
22925;DHT22;11628;51.072;3.712;2022-09-09T17:22:18;19.20;99.90
22925;DHT22;11628;51.072;3.712;2022-09-09T17:24:45;19.00;99.90
22925;DHT22;11628;51.072;3.712;2022-09-09T17:27:11;18.90;99.90
22925;DHT22;11628;51.072;3.712;2022-09-09T17:29:38;18.80;99.90
22925;DHT22;11628;51.072;3.712;2022-09-09T17:32:04;18.90;99.90
22925;DHT22;11628;51.072;3.712;2022-09-09T17:34:31;18.90;99.90
22925;DHT22;11628;51.072;3.712;2022-09-09T17:36:56;19.10;99.90
22925;DHT22;11628;51.072;3.712;2022-09-09T17:39:22;19.00;99.90
22925;DHT22;11628;51.072;3.712;2022-09-09T17:41:48;19.00;99.90
22925;DHT22;11628;51.072;3.712;2022-09-09T17:44:14;18.90;99.90
22925;DHT22;11628;51.072;3.712;2022-09-09T17:46:42;18.80;99.90
22925;DHT22;11628;51.072;3.712;2022-09-09T17:49:12;18.80;99.90
22925;DHT22;11628;51.072;3.712;2022-09-09T17:51:39;18.80;99.90
22925;DHT22;11628;51.072;3.712;2022-09-09T17:54:17;18.80;99.90
22925;DHT22;11628;51.072;3.712;2022-09-09T17:56:44;18.70;99.90
22925;DHT22;11628;51.072;3.712;2022-09-09T17:59:12;18.60;99.90
22925;DHT22;11628;51.072;3.712;2022-09-09T18:01:40;18.50;99.90